sensor_id;sensor_type;location;lat;lon;timestamp;temperature;humidity
18361;SHT31;9308;48.550;9.108;2022-08-24T00:02:25;18.51;63.19
18361;SHT31;9308;48.550;9.108;2022-08-24T00:04:51;18.41;63.42
18361;SHT31;9308;48.550;9.108;2022-08-24T00:07:17;18.35;63.70
18361;SHT31;9308;48.550;9.108;2022-08-24T00:09:44;18.37;63.53
18361;SHT31;9308;48.550;9.108;2022-08-24T00:12:10;18.23;63.87
18361;SHT31;9308;48.550;9.108;2022-08-24T00:14:36;18.24;63.83
18361;SHT31;9308;48.550;9.108;2022-08-24T00:17:02;18.25;63.76
18361;SHT31;9308;48.550;9.108;2022-08-24T00:19:27;18.27;63.69
18361;SHT31;9308;48.550;9.108;2022-08-24T00:21:53;18.24;63.43
18361;SHT31;9308;48.550;9.108;2022-08-24T00:24:19;18.09;64.15
18361;SHT31;9308;48.550;9.108;2022-08-24T00:26:45;18.16;64.00
18361;SHT31;9308;48.550;9.108;2022-08-24T00:29:12;18.18;63.58
18361;SHT31;9308;48.550;9.108;2022-08-24T00:31:38;18.09;64.03
18361;SHT31;9308;48.550;9.108;2022-08-24T00:34:04;17.93;64.38
18361;SHT31;9308;48.550;9.108;2022-08-24T00:36:30;17.89;65.11
18361;SHT31;9308;48.550;9.108;2022-08-24T00:38:55;17.82;65.08
18361;SHT31;9308;48.550;9.108;2022-08-24T00:41:21;17.86;64.66
18361;SHT31;9308;48.550;9.108;2022-08-24T00:44:00;17.79;65.29
18361;SHT31;9308;48.550;9.108;2022-08-24T00:46:50;17.82;65.26
18361;SHT31;9308;48.550;9.108;2022-08-24T00:52:14;17.68;65.37
18361;SHT31;9308;48.550;9.108;2022-08-24T00:54:43;17.86;65.06
18361;SHT31;9308;48.550;9.108;2022-08-24T00:57:11;17.81;65.31
18361;SHT31;9308;48.550;9.108;2022-08-24T00:59:48;17.82;64.58
18361;SHT31;9308;48.550;9.108;2022-08-24T01:02:18;17.78;65.01
18361;SHT31;9308;48.550;9.108;2022-08-24T01:04:57;17.74;65.31
18361;SHT31;9308;48.550;9.108;2022-08-24T01:07:26;17.75;65.06
18361;SHT31;9308;48.550;9.108;2022-08-24T01:10:00;17.49;66.12
18361;SHT31;9308;48.550;9.108;2022-08-24T01:12:28;17.62;65.53
18361;SHT31;9308;48.550;9.108;2022-08-24T01:14:56;17.48;66.03
18361;SHT31;9308;48.550;9.108;2022-08-24T01:17:23;17.45;66.37
18361;SHT31;9308;48.550;9.108;2022-08-24T01:20:08;17.75;64.66
18361;SHT31;9308;48.550;9.108;2022-08-24T01:25:15;17.38;66.37
18361;SHT31;9308;48.550;9.108;2022-08-24T01:27:41;17.34;66.36
18361;SHT31;9308;48.550;9.108;2022-08-24T01:30:10;17.13;67.11
18361;SHT31;9308;48.550;9.108;2022-08-24T01:32:37;17.11;67.26
18361;SHT31;9308;48.550;9.108;2022-08-24T01:35:04;17.16;67.07
18361;SHT31;9308;48.550;9.108;2022-08-24T01:37:30;17.13;67.14
18361;SHT31;9308;48.550;9.108;2022-08-24T01:40:00;17.02;67.53
18361;SHT31;9308;48.550;9.108;2022-08-24T01:42:27;17.06;67.15
18361;SHT31;9308;48.550;9.108;2022-08-24T01:44:54;16.93;67.80
18361;SHT31;9308;48.550;9.108;2022-08-24T01:47:19;16.98;67.53
18361;SHT31;9308;48.550;9.108;2022-08-24T01:49:46;16.75;68.26
18361;SHT31;9308;48.550;9.108;2022-08-24T01:55:35;16.86;67.73
18361;SHT31;9308;48.550;9.108;2022-08-24T01:58:01;16.80;67.98
18361;SHT31;9308;48.550;9.108;2022-08-24T02:00:27;16.75;68.53
18361;SHT31;9308;48.550;9.108;2022-08-24T02:02:53;16.71;68.35
18361;SHT31;9308;48.550;9.108;2022-08-24T02:05:19;16.66;68.20
18361;SHT31;9308;48.550;9.108;2022-08-24T02:07:45;16.77;67.93
18361;SHT31;9308;48.550;9.108;2022-08-24T02:10:12;16.73;68.09
18361;SHT31;9308;48.550;9.108;2022-08-24T02:12:41;16.62;68.50
18361;SHT31;9308;48.550;9.108;2022-08-24T02:15:08;16.62;68.69
18361;SHT31;9308;48.550;9.108;2022-08-24T02:17:36;16.59;68.46
18361;SHT31;9308;48.550;9.108;2022-08-24T02:20:03;16.55;68.87
18361;SHT31;9308;48.550;9.108;2022-08-24T02:22:29;16.61;68.55
18361;SHT31;9308;48.550;9.108;2022-08-24T02:24:55;16.64;68.32
18361;SHT31;9308;48.550;9.108;2022-08-24T02:27:20;16.51;68.92
18361;SHT31;9308;48.550;9.108;2022-08-24T02:29:46;16.37;69.07
18361;SHT31;9308;48.550;9.108;2022-08-24T02:32:12;16.35;69.27
18361;SHT31;9308;48.550;9.108;2022-08-24T02:34:37;16.35;69.49
18361;SHT31;9308;48.550;9.108;2022-08-24T02:37:03;16.42;69.06
18361;SHT31;9308;48.550;9.108;2022-08-24T02:39:29;16.40;68.94
18361;SHT31;9308;48.550;9.108;2022-08-24T02:41:55;16.28;69.41
18361;SHT31;9308;48.550;9.108;2022-08-24T02:44:21;16.30;69.40
18361;SHT31;9308;48.550;9.108;2022-08-24T02:46:47;16.34;69.37
18361;SHT31;9308;48.550;9.108;2022-08-24T02:49:13;16.10;70.12
18361;SHT31;9308;48.550;9.108;2022-08-24T02:51:42;16.12;69.98
18361;SHT31;9308;48.550;9.108;2022-08-24T02:54:09;16.21;69.82
18361;SHT31;9308;48.550;9.108;2022-08-24T02:56:34;16.01;70.36
18361;SHT31;9308;48.550;9.108;2022-08-24T02:59:00;16.10;70.25
18361;SHT31;9308;48.550;9.108;2022-08-24T03:01:26;16.13;69.95
18361;SHT31;9308;48.550;9.108;2022-08-24T03:03:52;16.09;70.36
18361;SHT31;9308;48.550;9.108;2022-08-24T03:06:18;16.12;69.89
18361;SHT31;9308;48.550;9.108;2022-08-24T03:08:44;15.99;70.48
18361;SHT31;9308;48.550;9.108;2022-08-24T03:11:11;16.06;70.23
18361;SHT31;9308;48.550;9.108;2022-08-24T03:13:37;15.93;70.53
18361;SHT31;9308;48.550;9.108;2022-08-24T03:16:04;15.86;70.83
18361;SHT31;9308;48.550;9.108;2022-08-24T03:18:30;15.83;70.72
18361;SHT31;9308;48.550;9.108;2022-08-24T03:20:57;15.94;70.03
18361;SHT31;9308;48.550;9.108;2022-08-24T03:23:23;15.91;69.99
18361;SHT31;9308;48.550;9.108;2022-08-24T03:25:49;15.66;70.85
18361;SHT31;9308;48.550;9.108;2022-08-24T03:28:17;15.75;70.98
18361;SHT31;9308;48.550;9.108;2022-08-24T03:30:42;15.76;70.98
18361;SHT31;9308;48.550;9.108;2022-08-24T03:33:08;15.78;70.83
18361;SHT31;9308;48.550;9.108;2022-08-24T03:35:34;15.80;70.72
18361;SHT31;9308;48.550;9.108;2022-08-24T03:38:00;15.87;70.57
18361;SHT31;9308;48.550;9.108;2022-08-24T03:40:26;15.91;70.30
18361;SHT31;9308;48.550;9.108;2022-08-24T03:42:52;15.90;70.23
18361;SHT31;9308;48.550;9.108;2022-08-24T03:45:18;15.65;71.00
18361;SHT31;9308;48.550;9.108;2022-08-24T03:47:44;15.85;70.33
18361;SHT31;9308;48.550;9.108;2022-08-24T03:50:11;15.80;70.32
18361;SHT31;9308;48.550;9.108;2022-08-24T03:52:36;15.73;70.71
18361;SHT31;9308;48.550;9.108;2022-08-24T03:55:04;15.65;70.74
18361;SHT31;9308;48.550;9.108;2022-08-24T03:57:30;15.57;71.43
18361;SHT31;9308;48.550;9.108;2022-08-24T03:59:55;15.82;70.42
18361;SHT31;9308;48.550;9.108;2022-08-24T04:02:21;15.86;70.25
18361;SHT31;9308;48.550;9.108;2022-08-24T04:04:46;16.00;69.84
18361;SHT31;9308;48.550;9.108;2022-08-24T04:07:12;15.86;70.17
18361;SHT31;9308;48.550;9.108;2022-08-24T04:09:37;15.79;70.71
18361;SHT31;9308;48.550;9.108;2022-08-24T04:12:03;15.71;71.00
18361;SHT31;9308;48.550;9.108;2022-08-24T04:14:29;15.72;71.00
18361;SHT31;9308;48.550;9.108;2022-08-24T04:16:54;15.78;70.71
18361;SHT31;9308;48.550;9.108;2022-08-24T04:19:20;15.61;71.28
18361;SHT31;9308;48.550;9.108;2022-08-24T04:21:45;15.58;71.55
18361;SHT31;9308;48.550;9.108;2022-08-24T04:24:12;15.62;71.31
18361;SHT31;9308;48.550;9.108;2022-08-24T04:26:39;15.62;71.26
18361;SHT31;9308;48.550;9.108;2022-08-24T04:29:06;15.65;70.99
18361;SHT31;9308;48.550;9.108;2022-08-24T04:31:34;15.80;70.57
18361;SHT31;9308;48.550;9.108;2022-08-24T04:34:00;15.73;70.69
18361;SHT31;9308;48.550;9.108;2022-08-24T04:36:25;15.69;70.88
18361;SHT31;9308;48.550;9.108;2022-08-24T04:38:51;15.59;70.93
18361;SHT31;9308;48.550;9.108;2022-08-24T04:41:17;15.63;71.05
18361;SHT31;9308;48.550;9.108;2022-08-24T04:43:44;15.69;70.78
18361;SHT31;9308;48.550;9.108;2022-08-24T04:46:13;15.73;70.95
18361;SHT31;9308;48.550;9.108;2022-08-24T04:48:40;15.86;70.49
18361;SHT31;9308;48.550;9.108;2022-08-24T04:51:08;15.96;70.43
18361;SHT31;9308;48.550;9.108;2022-08-24T04:53:34;16.00;69.75
18361;SHT31;9308;48.550;9.108;2022-08-24T04:56:00;16.12;69.36
18361;SHT31;9308;48.550;9.108;2022-08-24T04:58:27;16.05;69.86
18361;SHT31;9308;48.550;9.108;2022-08-24T05:00:53;16.06;69.72
18361;SHT31;9308;48.550;9.108;2022-08-24T05:03:19;16.16;69.49
18361;SHT31;9308;48.550;9.108;2022-08-24T05:05:48;16.30;69.10
18361;SHT31;9308;48.550;9.108;2022-08-24T05:08:18;16.34;69.10
18361;SHT31;9308;48.550;9.108;2022-08-24T05:10:48;16.34;69.56
18361;SHT31;9308;48.550;9.108;2022-08-24T05:13:15;16.56;68.76
18361;SHT31;9308;48.550;9.108;2022-08-24T05:15:43;16.52;69.18
18361;SHT31;9308;48.550;9.108;2022-08-24T05:18:09;16.54;69.18
18361;SHT31;9308;48.550;9.108;2022-08-24T05:20:39;16.69;69.10
18361;SHT31;9308;48.550;9.108;2022-08-24T05:23:04;16.73;68.95
18361;SHT31;9308;48.550;9.108;2022-08-24T05:25:29;16.69;68.35
18361;SHT31;9308;48.550;9.108;2022-08-24T05:27:55;16.83;68.23
18361;SHT31;9308;48.550;9.108;2022-08-24T05:30:20;17.02;67.20
18361;SHT31;9308;48.550;9.108;2022-08-24T05:32:46;16.99;67.95
18361;SHT31;9308;48.550;9.108;2022-08-24T05:35:13;17.17;67.21
18361;SHT31;9308;48.550;9.108;2022-08-24T05:37:39;17.26;67.00
18361;SHT31;9308;48.550;9.108;2022-08-24T05:40:10;17.17;67.50
18361;SHT31;9308;48.550;9.108;2022-08-24T05:42:37;17.42;66.65
18361;SHT31;9308;48.550;9.108;2022-08-24T05:45:04;17.49;66.40
18361;SHT31;9308;48.550;9.108;2022-08-24T05:47:29;17.55;66.76
18361;SHT31;9308;48.550;9.108;2022-08-24T05:49:55;17.55;67.07
18361;SHT31;9308;48.550;9.108;2022-08-24T05:52:21;17.65;66.08
18361;SHT31;9308;48.550;9.108;2022-08-24T05:54:51;17.62;66.22
18361;SHT31;9308;48.550;9.108;2022-08-24T05:57:17;17.67;65.99
18361;SHT31;9308;48.550;9.108;2022-08-24T05:59:43;17.78;65.82
18361;SHT31;9308;48.550;9.108;2022-08-24T06:02:10;17.93;65.64
18361;SHT31;9308;48.550;9.108;2022-08-24T06:04:35;17.96;66.37
18361;SHT31;9308;48.550;9.108;2022-08-24T06:07:03;17.99;66.62
18361;SHT31;9308;48.550;9.108;2022-08-24T06:09:29;18.21;65.90
18361;SHT31;9308;48.550;9.108;2022-08-24T06:11:55;18.30;65.97
18361;SHT31;9308;48.550;9.108;2022-08-24T06:14:21;18.25;66.55
18361;SHT31;9308;48.550;9.108;2022-08-24T06:16:46;18.27;67.29
18361;SHT31;9308;48.550;9.108;2022-08-24T06:19:15;18.38;66.16
18361;SHT31;9308;48.550;9.108;2022-08-24T06:21:41;18.38;67.09
18361;SHT31;9308;48.550;9.108;2022-08-24T06:24:07;18.44;66.61
18361;SHT31;9308;48.550;9.108;2022-08-24T06:26:33;18.61;66.44
18361;SHT31;9308;48.550;9.108;2022-08-24T06:29:18;18.62;66.52
18361;SHT31;9308;48.550;9.108;2022-08-24T06:31:45;18.86;65.78
18361;SHT31;9308;48.550;9.108;2022-08-24T06:34:13;18.73;65.99
18361;SHT31;9308;48.550;9.108;2022-08-24T06:36:39;18.88;65.87
18361;SHT31;9308;48.550;9.108;2022-08-24T06:39:05;19.14;64.74
18361;SHT31;9308;48.550;9.108;2022-08-24T06:41:30;19.04;66.05
18361;SHT31;9308;48.550;9.108;2022-08-24T06:43:56;19.26;64.91
18361;SHT31;9308;48.550;9.108;2022-08-24T06:46:21;19.17;65.45
18361;SHT31;9308;48.550;9.108;2022-08-24T06:48:47;19.28;65.31
18361;SHT31;9308;48.550;9.108;2022-08-24T06:51:16;19.43;64.45
18361;SHT31;9308;48.550;9.108;2022-08-24T06:53:42;19.44;64.89
18361;SHT31;9308;48.550;9.108;2022-08-24T06:56:08;19.54;63.99
18361;SHT31;9308;48.550;9.108;2022-08-24T06:58:34;19.53;63.81
18361;SHT31;9308;48.550;9.108;2022-08-24T07:01:15;19.74;63.55
18361;SHT31;9308;48.550;9.108;2022-08-24T07:03:42;19.66;63.38
18361;SHT31;9308;48.550;9.108;2022-08-24T07:06:08;19.78;63.40
18361;SHT31;9308;48.550;9.108;2022-08-24T07:08:35;19.87;63.79
18361;SHT31;9308;48.550;9.108;2022-08-24T07:11:00;20.01;62.57
18361;SHT31;9308;48.550;9.108;2022-08-24T07:13:27;20.17;62.35
18361;SHT31;9308;48.550;9.108;2022-08-24T07:15:55;20.33;61.77
18361;SHT31;9308;48.550;9.108;2022-08-24T07:18:21;20.29;62.39
18361;SHT31;9308;48.550;9.108;2022-08-24T07:20:46;20.33;62.45
18361;SHT31;9308;48.550;9.108;2022-08-24T07:23:12;20.52;61.50
18361;SHT31;9308;48.550;9.108;2022-08-24T07:25:40;20.55;61.09
18361;SHT31;9308;48.550;9.108;2022-08-24T07:28:06;20.78;61.52
18361;SHT31;9308;48.550;9.108;2022-08-24T07:30:32;21.05;60.66
18361;SHT31;9308;48.550;9.108;2022-08-24T07:32:58;20.98;61.43
18361;SHT31;9308;48.550;9.108;2022-08-24T07:35:25;20.91;60.81
18361;SHT31;9308;48.550;9.108;2022-08-24T07:37:51;21.13;60.84
18361;SHT31;9308;48.550;9.108;2022-08-24T07:40:17;21.51;58.61
18361;SHT31;9308;48.550;9.108;2022-08-24T07:42:47;21.71;58.18
18361;SHT31;9308;48.550;9.108;2022-08-24T07:45:12;21.94;57.81
18361;SHT31;9308;48.550;9.108;2022-08-24T07:47:38;21.95;58.30
18361;SHT31;9308;48.550;9.108;2022-08-24T07:50:04;21.98;57.99
18361;SHT31;9308;48.550;9.108;2022-08-24T07:52:29;21.99;58.45
18361;SHT31;9308;48.550;9.108;2022-08-24T07:54:56;22.17;58.09
18361;SHT31;9308;48.550;9.108;2022-08-24T07:57:22;22.35;57.22
18361;SHT31;9308;48.550;9.108;2022-08-24T07:59:48;22.32;57.78
18361;SHT31;9308;48.550;9.108;2022-08-24T08:02:13;22.77;55.55
18361;SHT31;9308;48.550;9.108;2022-08-24T08:04:40;23.02;55.62
18361;SHT31;9308;48.550;9.108;2022-08-24T08:07:06;23.30;55.23
18361;SHT31;9308;48.550;9.108;2022-08-24T08:09:35;23.63;53.21
18361;SHT31;9308;48.550;9.108;2022-08-24T08:12:01;23.84;53.83
18361;SHT31;9308;48.550;9.108;2022-08-24T08:14:26;23.98;53.87
18361;SHT31;9308;48.550;9.108;2022-08-24T08:16:51;24.26;53.26
18361;SHT31;9308;48.550;9.108;2022-08-24T08:19:17;24.46;53.28
18361;SHT31;9308;48.550;9.108;2022-08-24T08:21:45;24.77;51.94
18361;SHT31;9308;48.550;9.108;2022-08-24T08:24:30;24.91;49.10
18361;SHT31;9308;48.550;9.108;2022-08-24T08:26:55;25.15;50.90
18361;SHT31;9308;48.550;9.108;2022-08-24T08:29:22;25.26;51.21
18361;SHT31;9308;48.550;9.108;2022-08-24T08:31:49;25.49;49.59
18361;SHT31;9308;48.550;9.108;2022-08-24T08:34:16;25.73;47.68
18361;SHT31;9308;48.550;9.108;2022-08-24T08:36:42;25.67;48.29
18361;SHT31;9308;48.550;9.108;2022-08-24T08:39:09;26.00;48.47
18361;SHT31;9308;48.550;9.108;2022-08-24T08:47:39;26.36;45.13
18361;SHT31;9308;48.550;9.108;2022-08-24T08:50:30;26.70;44.84
18361;SHT31;9308;48.550;9.108;2022-08-24T08:53:24;26.36;41.11
18361;SHT31;9308;48.550;9.108;2022-08-24T09:04:18;26.69;43.05
18361;SHT31;9308;48.550;9.108;2022-08-24T09:12:29;27.22;41.42
18361;SHT31;9308;48.550;9.108;2022-08-24T09:26:22;27.96;37.73
18361;SHT31;9308;48.550;9.108;2022-08-24T09:31:37;27.69;36.89
18361;SHT31;9308;48.550;9.108;2022-08-24T09:34:17;27.93;37.39
18361;SHT31;9308;48.550;9.108;2022-08-24T09:45:18;28.83;36.72
18361;SHT31;9308;48.550;9.108;2022-08-24T09:53:25;29.06;34.23
18361;SHT31;9308;48.550;9.108;2022-08-24T10:04:49;28.99;34.27
18361;SHT31;9308;48.550;9.108;2022-08-24T10:07:28;29.58;34.52
18361;SHT31;9308;48.550;9.108;2022-08-24T10:10:07;29.73;33.69
18361;SHT31;9308;48.550;9.108;2022-08-24T10:15:10;34.80;27.84
18361;SHT31;9308;48.550;9.108;2022-08-24T10:20:28;40.68;21.24
18361;SHT31;9308;48.550;9.108;2022-08-24T10:25:55;32.98;31.50
18361;SHT31;9308;48.550;9.108;2022-08-24T10:31:39;30.24;33.14
18361;SHT31;9308;48.550;9.108;2022-08-24T10:34:50;29.92;33.43
18361;SHT31;9308;48.550;9.108;2022-08-24T10:52:18;29.84;34.24
18361;SHT31;9308;48.550;9.108;2022-08-24T10:54:48;29.58;32.28
18361;SHT31;9308;48.550;9.108;2022-08-24T10:57:25;29.69;32.22
18361;SHT31;9308;48.550;9.108;2022-08-24T11:02:38;30.68;33.23
18361;SHT31;9308;48.550;9.108;2022-08-24T11:05:07;29.55;33.36
18361;SHT31;9308;48.550;9.108;2022-08-24T11:07:34;29.90;34.25
18361;SHT31;9308;48.550;9.108;2022-08-24T11:10:05;29.96;33.69
18361;SHT31;9308;48.550;9.108;2022-08-24T11:12:41;30.17;33.58
18361;SHT31;9308;48.550;9.108;2022-08-24T11:18:02;30.68;34.13
18361;SHT31;9308;48.550;9.108;2022-08-24T11:20:35;30.28;33.26
18361;SHT31;9308;48.550;9.108;2022-08-24T11:23:21;30.10;33.13
18361;SHT31;9308;48.550;9.108;2022-08-24T11:26:03;30.17;33.22
18361;SHT31;9308;48.550;9.108;2022-08-24T11:28:32;30.68;32.25
18361;SHT31;9308;48.550;9.108;2022-08-24T11:31:01;30.16;32.07
18361;SHT31;9308;48.550;9.108;2022-08-24T11:33:44;30.38;31.64
18361;SHT31;9308;48.550;9.108;2022-08-24T11:36:15;30.43;32.88
18361;SHT31;9308;48.550;9.108;2022-08-24T11:38:41;30.53;32.55
18361;SHT31;9308;48.550;9.108;2022-08-24T11:41:15;30.57;32.40
18361;SHT31;9308;48.550;9.108;2022-08-24T11:44:02;31.00;31.55
18361;SHT31;9308;48.550;9.108;2022-08-24T11:46:42;30.74;32.06
18361;SHT31;9308;48.550;9.108;2022-08-24T11:54:50;30.41;32.36
18361;SHT31;9308;48.550;9.108;2022-08-24T12:00:01;30.13;32.79
18361;SHT31;9308;48.550;9.108;2022-08-24T12:08:45;30.17;34.92
18361;SHT31;9308;48.550;9.108;2022-08-24T12:17:12;30.50;34.04
18361;SHT31;9308;48.550;9.108;2022-08-24T12:19:47;30.99;33.96
18361;SHT31;9308;48.550;9.108;2022-08-24T12:22:14;30.95;34.01
18361;SHT31;9308;48.550;9.108;2022-08-24T12:24:44;30.99;33.69
18361;SHT31;9308;48.550;9.108;2022-08-24T12:27:17;30.88;32.27
18361;SHT31;9308;48.550;9.108;2022-08-24T12:30:00;30.54;30.80
18361;SHT31;9308;48.550;9.108;2022-08-24T12:32:32;30.10;32.58
18361;SHT31;9308;48.550;9.108;2022-08-24T12:35:08;30.23;32.92
18361;SHT31;9308;48.550;9.108;2022-08-24T12:37:50;30.31;32.66
18361;SHT31;9308;48.550;9.108;2022-08-24T12:40:26;30.31;32.69
18361;SHT31;9308;48.550;9.108;2022-08-24T12:43:03;30.92;32.36
18361;SHT31;9308;48.550;9.108;2022-08-24T12:45:29;30.48;31.64
18361;SHT31;9308;48.550;9.108;2022-08-24T12:48:20;30.31;31.17
18361;SHT31;9308;48.550;9.108;2022-08-24T12:58:52;30.81;32.75
18361;SHT31;9308;48.550;9.108;2022-08-24T13:01:19;29.90;31.81
18361;SHT31;9308;48.550;9.108;2022-08-24T13:03:54;30.21;31.54
18361;SHT31;9308;48.550;9.108;2022-08-24T13:06:36;30.27;30.57
18361;SHT31;9308;48.550;9.108;2022-08-24T13:09:12;30.20;31.80
18361;SHT31;9308;48.550;9.108;2022-08-24T13:11:38;29.93;31.78
18361;SHT31;9308;48.550;9.108;2022-08-24T13:17:05;30.21;32.31
18361;SHT31;9308;48.550;9.108;2022-08-24T13:19:41;30.21;32.95
18361;SHT31;9308;48.550;9.108;2022-08-24T13:29:40;30.81;32.91
18361;SHT31;9308;48.550;9.108;2022-08-24T13:32:13;30.43;33.45
18361;SHT31;9308;48.550;9.108;2022-08-24T13:34:44;30.53;33.88
18361;SHT31;9308;48.550;9.108;2022-08-24T13:37:17;30.95;34.15
18361;SHT31;9308;48.550;9.108;2022-08-24T13:40:14;31.08;33.63
18361;SHT31;9308;48.550;9.108;2022-08-24T13:45:50;31.34;34.52
18361;SHT31;9308;48.550;9.108;2022-08-24T13:48:46;31.25;33.29
18361;SHT31;9308;48.550;9.108;2022-08-24T13:54:18;31.58;32.95
18361;SHT31;9308;48.550;9.108;2022-08-24T13:57:08;31.36;32.53
18361;SHT31;9308;48.550;9.108;2022-08-24T14:03:08;31.36;32.95
18361;SHT31;9308;48.550;9.108;2022-08-24T14:05:48;30.99;32.50
18361;SHT31;9308;48.550;9.108;2022-08-24T14:08:36;31.16;32.62
18361;SHT31;9308;48.550;9.108;2022-08-24T14:13:50;31.22;34.00
18361;SHT31;9308;48.550;9.108;2022-08-24T14:16:26;31.46;34.27
18361;SHT31;9308;48.550;9.108;2022-08-24T14:24:36;31.29;33.77
18361;SHT31;9308;48.550;9.108;2022-08-24T14:27:10;31.12;34.51
18361;SHT31;9308;48.550;9.108;2022-08-24T14:29:41;31.03;35.13
18361;SHT31;9308;48.550;9.108;2022-08-24T14:37:39;31.10;36.44
18361;SHT31;9308;48.550;9.108;2022-08-24T14:40:22;31.05;37.07
18361;SHT31;9308;48.550;9.108;2022-08-24T14:42:57;31.26;35.54
18361;SHT31;9308;48.550;9.108;2022-08-24T14:48:14;31.08;37.55
18361;SHT31;9308;48.550;9.108;2022-08-24T14:53:36;31.09;37.28
18361;SHT31;9308;48.550;9.108;2022-08-24T14:56:25;31.00;36.39
18361;SHT31;9308;48.550;9.108;2022-08-24T14:59:06;30.88;36.92
18361;SHT31;9308;48.550;9.108;2022-08-24T15:04:50;30.72;37.98
18361;SHT31;9308;48.550;9.108;2022-08-24T15:09:45;30.36;38.11
18361;SHT31;9308;48.550;9.108;2022-08-24T15:12:22;30.67;37.98
18361;SHT31;9308;48.550;9.108;2022-08-24T15:15:01;30.82;38.38
18361;SHT31;9308;48.550;9.108;2022-08-24T15:17:38;31.02;38.08
18361;SHT31;9308;48.550;9.108;2022-08-24T15:20:19;30.91;38.41
18361;SHT31;9308;48.550;9.108;2022-08-24T15:22:53;31.08;38.54
18361;SHT31;9308;48.550;9.108;2022-08-24T15:25:32;30.91;37.50
18361;SHT31;9308;48.550;9.108;2022-08-24T15:28:22;30.93;37.89
18361;SHT31;9308;48.550;9.108;2022-08-24T15:30:56;30.91;38.33
18361;SHT31;9308;48.550;9.108;2022-08-24T15:33:22;31.91;36.47
18361;SHT31;9308;48.550;9.108;2022-08-24T15:35:51;31.99;36.78
18361;SHT31;9308;48.550;9.108;2022-08-24T15:41:09;33.94;34.06
18361;SHT31;9308;48.550;9.108;2022-08-24T15:43:48;34.79;33.90
18361;SHT31;9308;48.550;9.108;2022-08-24T15:46:19;36.33;31.40
18361;SHT31;9308;48.550;9.108;2022-08-24T15:48:47;35.86;31.50
18361;SHT31;9308;48.550;9.108;2022-08-24T15:51:34;35.93;31.52
18361;SHT31;9308;48.550;9.108;2022-08-24T15:56:47;37.35;30.03
18361;SHT31;9308;48.550;9.108;2022-08-24T15:59:24;37.43;29.10
18361;SHT31;9308;48.550;9.108;2022-08-24T16:02:16;38.52;28.43
18361;SHT31;9308;48.550;9.108;2022-08-24T16:05:19;37.93;29.21
18361;SHT31;9308;48.550;9.108;2022-08-24T16:16:01;36.54;31.96
18361;SHT31;9308;48.550;9.108;2022-08-24T16:18:57;37.14;31.10
18361;SHT31;9308;48.550;9.108;2022-08-24T16:21:36;34.76;33.45
18361;SHT31;9308;48.550;9.108;2022-08-24T16:24:24;33.29;35.70
18361;SHT31;9308;48.550;9.108;2022-08-24T16:27:07;33.89;33.95
18361;SHT31;9308;48.550;9.108;2022-08-24T16:34:33;35.13;32.94
18361;SHT31;9308;48.550;9.108;2022-08-24T16:36:59;34.62;33.34
18361;SHT31;9308;48.550;9.108;2022-08-24T16:39:25;34.29;33.45
18361;SHT31;9308;48.550;9.108;2022-08-24T16:41:57;33.80;34.49
18361;SHT31;9308;48.550;9.108;2022-08-24T16:44:25;33.31;34.76
18361;SHT31;9308;48.550;9.108;2022-08-24T16:46:52;32.86;35.46
18361;SHT31;9308;48.550;9.108;2022-08-24T16:49:17;31.92;36.21
18361;SHT31;9308;48.550;9.108;2022-08-24T16:51:43;31.00;37.65
18361;SHT31;9308;48.550;9.108;2022-08-24T16:54:08;30.99;38.32
18361;SHT31;9308;48.550;9.108;2022-08-24T16:56:33;30.14;39.08
18361;SHT31;9308;48.550;9.108;2022-08-24T16:59:00;30.00;39.61
18361;SHT31;9308;48.550;9.108;2022-08-24T17:01:25;29.84;40.09
18361;SHT31;9308;48.550;9.108;2022-08-24T17:03:51;29.75;40.66
18361;SHT31;9308;48.550;9.108;2022-08-24T17:06:17;29.79;40.39
18361;SHT31;9308;48.550;9.108;2022-08-24T17:08:43;29.50;40.87
18361;SHT31;9308;48.550;9.108;2022-08-24T17:11:09;29.23;41.67
18361;SHT31;9308;48.550;9.108;2022-08-24T17:13:35;29.24;41.98
18361;SHT31;9308;48.550;9.108;2022-08-24T17:16:01;28.74;42.69
18361;SHT31;9308;48.550;9.108;2022-08-24T17:18:27;29.11;43.46
18361;SHT31;9308;48.550;9.108;2022-08-24T17:20:53;29.00;42.94
18361;SHT31;9308;48.550;9.108;2022-08-24T17:23:18;28.78;43.11
18361;SHT31;9308;48.550;9.108;2022-08-24T17:25:44;28.61;43.71
18361;SHT31;9308;48.550;9.108;2022-08-24T17:28:12;28.37;44.24
18361;SHT31;9308;48.550;9.108;2022-08-24T17:30:40;28.52;44.32
18361;SHT31;9308;48.550;9.108;2022-08-24T17:33:06;28.51;45.31
18361;SHT31;9308;48.550;9.108;2022-08-24T17:35:31;28.40;45.60
18361;SHT31;9308;48.550;9.108;2022-08-24T17:37:57;28.42;45.75
18361;SHT31;9308;48.550;9.108;2022-08-24T17:40:24;28.18;45.95
18361;SHT31;9308;48.550;9.108;2022-08-24T17:42:50;28.06;46.66
18361;SHT31;9308;48.550;9.108;2022-08-24T17:45:16;28.07;46.58
18361;SHT31;9308;48.550;9.108;2022-08-24T17:47:42;27.94;46.65
18361;SHT31;9308;48.550;9.108;2022-08-24T17:50:12;27.89;47.21
18361;SHT31;9308;48.550;9.108;2022-08-24T17:52:38;27.83;46.95
18361;SHT31;9308;48.550;9.108;2022-08-24T17:55:06;27.55;48.27
18361;SHT31;9308;48.550;9.108;2022-08-24T17:57:32;27.69;47.77
18361;SHT31;9308;48.550;9.108;2022-08-24T17:59:58;27.58;47.85
18361;SHT31;9308;48.550;9.108;2022-08-24T18:02:23;27.47;48.32
18361;SHT31;9308;48.550;9.108;2022-08-24T18:04:49;27.34;49.00
18361;SHT31;9308;48.550;9.108;2022-08-24T18:07:17;27.20;49.13
18361;SHT31;9308;48.550;9.108;2022-08-24T18:09:53;27.12;49.44
18361;SHT31;9308;48.550;9.108;2022-08-24T18:12:22;27.12;48.89
18361;SHT31;9308;48.550;9.108;2022-08-24T18:14:49;27.08;49.00
18361;SHT31;9308;48.550;9.108;2022-08-24T18:17:17;26.91;50.02
18361;SHT31;9308;48.550;9.108;2022-08-24T18:19:44;26.72;50.04
18361;SHT31;9308;48.550;9.108;2022-08-24T18:22:10;26.55;50.84
18361;SHT31;9308;48.550;9.108;2022-08-24T18:24:35;26.67;49.98
18361;SHT31;9308;48.550;9.108;2022-08-24T18:27:07;26.59;50.62
18361;SHT31;9308;48.550;9.108;2022-08-24T18:29:33;26.34;51.69
18361;SHT31;9308;48.550;9.108;2022-08-24T18:31:59;26.12;51.71
18361;SHT31;9308;48.550;9.108;2022-08-24T18:34:25;26.08;51.87
18361;SHT31;9308;48.550;9.108;2022-08-24T18:36:51;26.17;51.32
18361;SHT31;9308;48.550;9.108;2022-08-24T18:39:18;25.98;51.67
18361;SHT31;9308;48.550;9.108;2022-08-24T18:41:45;25.89;52.10
18361;SHT31;9308;48.550;9.108;2022-08-24T18:44:12;25.86;52.22
18361;SHT31;9308;48.550;9.108;2022-08-24T18:46:40;25.67;53.03
18361;SHT31;9308;48.550;9.108;2022-08-24T18:49:05;25.62;52.85
18361;SHT31;9308;48.550;9.108;2022-08-24T18:51:33;25.60;53.21
18361;SHT31;9308;48.550;9.108;2022-08-24T18:54:04;25.52;53.44
18361;SHT31;9308;48.550;9.108;2022-08-24T18:56:30;25.45;53.71
18361;SHT31;9308;48.550;9.108;2022-08-24T18:58:56;25.18;54.04
18361;SHT31;9308;48.550;9.108;2022-08-24T19:01:23;25.18;54.06
18361;SHT31;9308;48.550;9.108;2022-08-24T19:03:49;25.28;53.64
18361;SHT31;9308;48.550;9.108;2022-08-24T19:06:15;25.07;54.41
18361;SHT31;9308;48.550;9.108;2022-08-24T19:08:40;25.05;54.75
18361;SHT31;9308;48.550;9.108;2022-08-24T19:11:06;25.00;54.45